Aérodrome :
LOGIN :

S'inscrire | Disclaimer

   EN    FR    IT 

 










Légende :    VFR   VFR Marginal   IFR   IFR Intensif   IFR Très Intensif
Visi : 
Plafond : 
>= 8 km
>= 3000ft
5 à 8 km
1000 à 3000 ft
1500m à 5 km
500 à 1000 ft
800 à 1500m
200 à 500 ft
< 800m
< 200 ft
Symboles :   Orages  Brouillard  Fortes neiges  Fortes précipitations  Vent > 20 kt
SIGMETs :   Divers  Orages  Givrage  Turbulence  Onde Orograph.  Cendres Volcan.







- Altitude de l'aérodrome : -11 ft
- Code IATA : AMS


EHAM - Amsterdam Schiphol

DERNIER METAR :
  • 260655Z 26017KT 230V290 9999 FEW015 SCT018 10/06 Q1013 NOSIG

METARs EXPIRÉS :
  • 260625Z 26016KT 220V300 9999 SCT015 09/06 Q1013 NOSIG
  • 260555Z 26016KT 230V290 9999 FEW015 09/06 Q1013 NOSIG
  • 260525Z 26015KT 9999 FEW015 09/06 Q1012 NOSIG
  • 260455Z 26014KT 9999 FEW012 08/06 Q1012 NOSIG
  • 260425Z 26015KT 9999 FEW014 08/06 Q1012 NOSIG

TAF TAF EHAM
Valide du 26 à 06h jusqu'au 27 à 12h UTC


260432Z 2606/2712 26015KT 9999 FEW015
BECMG 2606/2608 26017G27KT
BECMG 2615/2618 23013KT
BECMG 2621/2624 21006KT
PROB30
TEMPO 2703/2708 6000 BKN006
Pas de NOTAMs connus pour ce terrain.



MET'MAP, la Météo Aéronautique d'un coup d'oeil ! - Copyright ORBIFLY Décembre 2007 - Disclaimer

ORBIFLY MET'MAP TEAM :

Programmation & Développement : Alexandra Zaïnal
Conception & Développement : Baudouin d'Aumeries
Co-Programmation & Développement : Marc-Olivier Méhu
Soutien technique & logistique : Manuel Goepfert

Contact : metmap@orbifly.com




SOURCES & CREDITS :

   NOAA